sensor_id;sensor_type;location;lat;lon;timestamp;P1;durP1;ratioP1;P2;durP2;ratioP2
12248;SDS011;6187;50.778;6.142;2022-11-21T00:00:20;4.07;;;2.13;;
12248;SDS011;6187;50.778;6.142;2022-11-21T00:02:49;5.27;;;2.30;;
12248;SDS011;6187;50.778;6.142;2022-11-21T00:05:19;3.67;;;1.97;;
12248;SDS011;6187;50.778;6.142;2022-11-21T00:07:48;4.73;;;2.43;;
12248;SDS011;6187;50.778;6.142;2022-11-21T00:10:16;3.90;;;1.80;;
12248;SDS011;6187;50.778;6.142;2022-11-21T00:12:45;3.50;;;1.87;;
12248;SDS011;6187;50.778;6.142;2022-11-21T00:15:14;3.93;;;2.20;;
12248;SDS011;6187;50.778;6.142;2022-11-21T00:17:42;2.77;;;1.90;;
12248;SDS011;6187;50.778;6.142;2022-11-21T00:20:11;2.30;;;1.80;;
12248;SDS011;6187;50.778;6.142;2022-11-21T00:22:41;3.53;;;2.10;;
12248;SDS011;6187;50.778;6.142;2022-11-21T00:25:09;4.57;;;2.30;;
12248;SDS011;6187;50.778;6.142;2022-11-21T00:27:38;2.70;;;1.90;;
12248;SDS011;6187;50.778;6.142;2022-11-21T00:30:07;3.17;;;2.10;;
12248;SDS011;6187;50.778;6.142;2022-11-21T00:32:36;2.70;;;1.70;;
12248;SDS011;6187;50.778;6.142;2022-11-21T00:35:05;4.40;;;2.20;;
12248;SDS011;6187;50.778;6.142;2022-11-21T00:37:34;4.37;;;2.23;;
12248;SDS011;6187;50.778;6.142;2022-11-21T00:40:05;2.70;;;1.90;;
12248;SDS011;6187;50.778;6.142;2022-11-21T00:42:33;4.23;;;1.87;;
12248;SDS011;6187;50.778;6.142;2022-11-21T00:45:02;2.73;;;1.77;;
12248;SDS011;6187;50.778;6.142;2022-11-21T00:47:31;2.50;;;1.83;;
12248;SDS011;6187;50.778;6.142;2022-11-21T00:49:59;2.53;;;1.80;;
12248;SDS011;6187;50.778;6.142;2022-11-21T00:52:28;3.40;;;1.93;;
12248;SDS011;6187;50.778;6.142;2022-11-21T00:54:57;3.50;;;2.00;;
12248;SDS011;6187;50.778;6.142;2022-11-21T00:57:27;2.97;;;1.70;;
12248;SDS011;6187;50.778;6.142;2022-11-21T00:59:55;2.13;;;1.40;;
12248;SDS011;6187;50.778;6.142;2022-11-21T01:02:24;3.10;;;1.90;;
12248;SDS011;6187;50.778;6.142;2022-11-21T01:04:52;2.60;;;1.60;;
12248;SDS011;6187;50.778;6.142;2022-11-21T01:07:21;2.23;;;1.50;;
12248;SDS011;6187;50.778;6.142;2022-11-21T01:09:50;2.73;;;1.60;;
12248;SDS011;6187;50.778;6.142;2022-11-21T01:12:18;3.00;;;1.60;;
12248;SDS011;6187;50.778;6.142;2022-11-21T01:14:48;2.80;;;1.90;;
12248;SDS011;6187;50.778;6.142;2022-11-21T01:17:17;2.73;;;1.80;;
12248;SDS011;6187;50.778;6.142;2022-11-21T01:19:45;2.93;;;1.90;;
12248;SDS011;6187;50.778;6.142;2022-11-21T01:22:14;2.10;;;1.50;;
12248;SDS011;6187;50.778;6.142;2022-11-21T01:24:42;2.57;;;1.73;;
12248;SDS011;6187;50.778;6.142;2022-11-21T01:27:11;1.80;;;1.43;;
12248;SDS011;6187;50.778;6.142;2022-11-21T01:29:40;1.73;;;1.30;;
12248;SDS011;6187;50.778;6.142;2022-11-21T01:32:09;2.77;;;1.73;;
12248;SDS011;6187;50.778;6.142;2022-11-21T01:34:38;2.90;;;1.60;;
12248;SDS011;6187;50.778;6.142;2022-11-21T01:37:07;1.87;;;1.40;;
12248;SDS011;6187;50.778;6.142;2022-11-21T01:39:35;2.73;;;1.60;;
12248;SDS011;6187;50.778;6.142;2022-11-21T01:42:04;2.03;;;1.43;;
12248;SDS011;6187;50.778;6.142;2022-11-21T01:44:45;2.23;;;1.50;;
12248;SDS011;6187;50.778;6.142;2022-11-21T01:47:16;1.83;;;1.30;;
12248;SDS011;6187;50.778;6.142;2022-11-21T01:49:44;2.47;;;1.60;;
12248;SDS011;6187;50.778;6.142;2022-11-21T01:52:15;2.40;;;1.50;;
12248;SDS011;6187;50.778;6.142;2022-11-21T01:54:45;1.70;;;1.57;;
12248;SDS011;6187;50.778;6.142;2022-11-21T01:57:16;2.40;;;1.43;;
12248;SDS011;6187;50.778;6.142;2022-11-21T01:59:47;2.47;;;1.40;;
12248;SDS011;6187;50.778;6.142;2022-11-21T02:02:19;2.87;;;1.70;;
12248;SDS011;6187;50.778;6.142;2022-11-21T02:04:48;3.53;;;1.70;;
12248;SDS011;6187;50.778;6.142;2022-11-21T02:07:18;2.17;;;1.57;;
12248;SDS011;6187;50.778;6.142;2022-11-21T02:09:49;1.70;;;1.40;;
12248;SDS011;6187;50.778;6.142;2022-11-21T02:12:20;2.10;;;1.47;;
12248;SDS011;6187;50.778;6.142;2022-11-21T02:14:50;1.93;;;1.30;;
12248;SDS011;6187;50.778;6.142;2022-11-21T02:17:20;2.27;;;1.60;;
12248;SDS011;6187;50.778;6.142;2022-11-21T02:19:51;2.40;;;1.73;;
12248;SDS011;6187;50.778;6.142;2022-11-21T02:22:24;2.10;;;1.70;;
12248;SDS011;6187;50.778;6.142;2022-11-21T02:25:00;1.80;;;1.70;;
12248;SDS011;6187;50.778;6.142;2022-11-21T02:27:29;2.70;;;1.70;;
12248;SDS011;6187;50.778;6.142;2022-11-21T02:29:58;2.67;;;1.70;;
12248;SDS011;6187;50.778;6.142;2022-11-21T02:32:30;2.40;;;1.80;;
12248;SDS011;6187;50.778;6.142;2022-11-21T02:34:59;2.03;;;1.50;;
12248;SDS011;6187;50.778;6.142;2022-11-21T02:37:28;1.87;;;1.40;;
12248;SDS011;6187;50.778;6.142;2022-11-21T02:39:57;3.23;;;1.70;;
12248;SDS011;6187;50.778;6.142;2022-11-21T02:42:29;1.90;;;1.60;;
12248;SDS011;6187;50.778;6.142;2022-11-21T02:45:00;2.20;;;1.80;;
12248;SDS011;6187;50.778;6.142;2022-11-21T02:47:31;3.73;;;1.83;;
12248;SDS011;6187;50.778;6.142;2022-11-21T02:50:02;4.27;;;2.40;;
12248;SDS011;6187;50.778;6.142;2022-11-21T02:52:34;2.40;;;1.90;;
12248;SDS011;6187;50.778;6.142;2022-11-21T02:55:03;2.50;;;2.20;;
12248;SDS011;6187;50.778;6.142;2022-11-21T02:57:33;3.07;;;2.13;;
12248;SDS011;6187;50.778;6.142;2022-11-21T03:00:02;2.87;;;2.00;;
12248;SDS011;6187;50.778;6.142;2022-11-21T03:02:31;2.47;;;2.20;;
12248;SDS011;6187;50.778;6.142;2022-11-21T03:05:00;2.50;;;2.00;;
12248;SDS011;6187;50.778;6.142;2022-11-21T03:07:28;2.47;;;2.20;;
12248;SDS011;6187;50.778;6.142;2022-11-21T03:09:57;2.43;;;2.03;;
12248;SDS011;6187;50.778;6.142;2022-11-21T03:12:25;2.70;;;2.30;;
12248;SDS011;6187;50.778;6.142;2022-11-21T03:14:55;2.87;;;2.37;;
12248;SDS011;6187;50.778;6.142;2022-11-21T03:17:24;3.20;;;2.23;;
12248;SDS011;6187;50.778;6.142;2022-11-21T03:19:53;3.73;;;2.47;;
12248;SDS011;6187;50.778;6.142;2022-11-21T03:22:21;2.73;;;2.30;;
12248;SDS011;6187;50.778;6.142;2022-11-21T03:24:50;2.53;;;2.17;;
12248;SDS011;6187;50.778;6.142;2022-11-21T03:27:18;2.73;;;2.50;;
12248;SDS011;6187;50.778;6.142;2022-11-21T03:29:47;3.57;;;2.50;;
12248;SDS011;6187;50.778;6.142;2022-11-21T03:32:17;3.27;;;2.40;;
12248;SDS011;6187;50.778;6.142;2022-11-21T03:34:45;3.07;;;2.30;;
12248;SDS011;6187;50.778;6.142;2022-11-21T03:37:14;3.27;;;2.33;;
12248;SDS011;6187;50.778;6.142;2022-11-21T03:39:43;3.23;;;2.40;;
12248;SDS011;6187;50.778;6.142;2022-11-21T03:42:12;3.13;;;2.50;;
12248;SDS011;6187;50.778;6.142;2022-11-21T03:44:40;2.40;;;2.20;;
12248;SDS011;6187;50.778;6.142;2022-11-21T03:47:09;2.40;;;2.03;;
12248;SDS011;6187;50.778;6.142;2022-11-21T03:49:39;2.60;;;2.40;;
12248;SDS011;6187;50.778;6.142;2022-11-21T03:52:07;2.80;;;1.97;;
12248;SDS011;6187;50.778;6.142;2022-11-21T03:54:36;2.43;;;2.10;;
12248;SDS011;6187;50.778;6.142;2022-11-21T03:57:04;2.90;;;2.20;;
12248;SDS011;6187;50.778;6.142;2022-11-21T03:59:33;2.07;;;1.87;;
12248;SDS011;6187;50.778;6.142;2022-11-21T04:02:02;2.03;;;1.93;;
12248;SDS011;6187;50.778;6.142;2022-11-21T04:04:30;2.23;;;1.90;;
12248;SDS011;6187;50.778;6.142;2022-11-21T04:07:00;2.17;;;1.77;;
12248;SDS011;6187;50.778;6.142;2022-11-21T04:09:29;1.93;;;1.83;;
12248;SDS011;6187;50.778;6.142;2022-11-21T04:11:57;1.93;;;1.80;;
12248;SDS011;6187;50.778;6.142;2022-11-21T04:14:32;2.10;;;1.83;;
12248;SDS011;6187;50.778;6.142;2022-11-21T04:17:00;2.27;;;2.07;;
12248;SDS011;6187;50.778;6.142;2022-11-21T04:19:29;2.13;;;1.93;;
12248;SDS011;6187;50.778;6.142;2022-11-21T04:21:57;3.77;;;2.50;;
12248;SDS011;6187;50.778;6.142;2022-11-21T04:24:27;3.07;;;2.40;;
12248;SDS011;6187;50.778;6.142;2022-11-21T04:26:56;2.60;;;2.13;;
12248;SDS011;6187;50.778;6.142;2022-11-21T04:29:25;2.87;;;2.10;;
12248;SDS011;6187;50.778;6.142;2022-11-21T04:31:53;2.13;;;1.90;;
12248;SDS011;6187;50.778;6.142;2022-11-21T04:34:22;2.17;;;1.93;;
12248;SDS011;6187;50.778;6.142;2022-11-21T04:36:51;2.20;;;2.10;;
12248;SDS011;6187;50.778;6.142;2022-11-21T04:39:20;1.90;;;1.70;;
12248;SDS011;6187;50.778;6.142;2022-11-21T04:41:50;3.37;;;2.13;;
12248;SDS011;6187;50.778;6.142;2022-11-21T04:44:18;1.70;;;1.60;;
12248;SDS011;6187;50.778;6.142;2022-11-21T04:46:47;1.93;;;1.80;;
12248;SDS011;6187;50.778;6.142;2022-11-21T04:49:15;1.90;;;1.70;;
12248;SDS011;6187;50.778;6.142;2022-11-21T04:51:44;2.03;;;1.80;;
12248;SDS011;6187;50.778;6.142;2022-11-21T04:54:13;2.23;;;1.90;;
12248;SDS011;6187;50.778;6.142;2022-11-21T04:56:41;2.40;;;1.80;;
12248;SDS011;6187;50.778;6.142;2022-11-21T04:59:11;2.03;;;1.83;;
12248;SDS011;6187;50.778;6.142;2022-11-21T05:01:40;1.97;;;1.77;;
12248;SDS011;6187;50.778;6.142;2022-11-21T05:04:08;2.00;;;1.80;;
12248;SDS011;6187;50.778;6.142;2022-11-21T05:06:37;2.03;;;1.90;;
12248;SDS011;6187;50.778;6.142;2022-11-21T05:09:06;2.33;;;2.00;;
12248;SDS011;6187;50.778;6.142;2022-11-21T05:11:34;2.00;;;1.90;;
12248;SDS011;6187;50.778;6.142;2022-11-21T05:14:22;2.40;;;2.20;;
12248;SDS011;6187;50.778;6.142;2022-11-21T05:16:52;2.80;;;2.27;;
12248;SDS011;6187;50.778;6.142;2022-11-21T05:19:20;2.30;;;2.10;;
12248;SDS011;6187;50.778;6.142;2022-11-21T05:21:49;3.33;;;2.40;;
12248;SDS011;6187;50.778;6.142;2022-11-21T05:24:18;2.97;;;2.47;;
12248;SDS011;6187;50.778;6.142;2022-11-21T05:26:46;2.93;;;2.63;;
12248;SDS011;6187;50.778;6.142;2022-11-21T05:29:15;2.57;;;2.27;;
12248;SDS011;6187;50.778;6.142;2022-11-21T05:31:45;2.57;;;2.37;;
12248;SDS011;6187;50.778;6.142;2022-11-21T05:34:13;2.60;;;2.33;;
12248;SDS011;6187;50.778;6.142;2022-11-21T05:36:42;2.60;;;2.40;;
12248;SDS011;6187;50.778;6.142;2022-11-21T05:39:10;2.53;;;2.33;;
12248;SDS011;6187;50.778;6.142;2022-11-21T05:41:40;3.10;;;2.67;;
12248;SDS011;6187;50.778;6.142;2022-11-21T05:44:08;3.07;;;2.40;;
12248;SDS011;6187;50.778;6.142;2022-11-21T05:46:36;2.80;;;2.60;;
12248;SDS011;6187;50.778;6.142;2022-11-21T05:49:06;2.50;;;2.30;;
12248;SDS011;6187;50.778;6.142;2022-11-21T05:51:34;2.50;;;2.30;;
12248;SDS011;6187;50.778;6.142;2022-11-21T05:54:03;2.30;;;2.10;;
12248;SDS011;6187;50.778;6.142;2022-11-21T05:56:32;2.60;;;2.40;;
12248;SDS011;6187;50.778;6.142;2022-11-21T05:59:00;2.53;;;2.33;;
12248;SDS011;6187;50.778;6.142;2022-11-21T06:01:29;2.00;;;1.90;;
12248;SDS011;6187;50.778;6.142;2022-11-21T06:04:17;2.20;;;2.00;;
12248;SDS011;6187;50.778;6.142;2022-11-21T06:06:45;2.23;;;2.07;;
12248;SDS011;6187;50.778;6.142;2022-11-21T06:09:14;2.30;;;2.10;;
12248;SDS011;6187;50.778;6.142;2022-11-21T06:11:42;2.23;;;1.83;;
12248;SDS011;6187;50.778;6.142;2022-11-21T06:14:11;2.30;;;2.10;;
12248;SDS011;6187;50.778;6.142;2022-11-21T06:16:40;2.30;;;2.10;;
12248;SDS011;6187;50.778;6.142;2022-11-21T06:19:09;2.07;;;1.93;;
12248;SDS011;6187;50.778;6.142;2022-11-21T06:21:39;2.67;;;2.10;;
12248;SDS011;6187;50.778;6.142;2022-11-21T06:24:08;2.40;;;2.20;;
12248;SDS011;6187;50.778;6.142;2022-11-21T06:26:37;2.20;;;2.00;;
12248;SDS011;6187;50.778;6.142;2022-11-21T06:29:09;2.20;;;2.00;;
12248;SDS011;6187;50.778;6.142;2022-11-21T06:31:37;3.13;;;2.70;;
12248;SDS011;6187;50.778;6.142;2022-11-21T06:34:06;2.67;;;2.47;;
12248;SDS011;6187;50.778;6.142;2022-11-21T06:36:35;2.80;;;2.60;;
12248;SDS011;6187;50.778;6.142;2022-11-21T06:39:05;2.37;;;2.27;;
12248;SDS011;6187;50.778;6.142;2022-11-21T06:41:34;2.70;;;2.50;;
12248;SDS011;6187;50.778;6.142;2022-11-21T06:44:02;3.67;;;3.10;;
12248;SDS011;6187;50.778;6.142;2022-11-21T06:46:31;2.87;;;2.67;;
12248;SDS011;6187;50.778;6.142;2022-11-21T06:49:00;3.90;;;3.60;;
12248;SDS011;6187;50.778;6.142;2022-11-21T06:51:28;3.80;;;3.43;;
12248;SDS011;6187;50.778;6.142;2022-11-21T06:53:57;3.80;;;3.50;;
12248;SDS011;6187;50.778;6.142;2022-11-21T06:56:28;3.77;;;3.47;;
12248;SDS011;6187;50.778;6.142;2022-11-21T06:58:56;3.57;;;3.27;;
12248;SDS011;6187;50.778;6.142;2022-11-21T07:01:25;3.60;;;3.37;;
12248;SDS011;6187;50.778;6.142;2022-11-21T07:03:54;4.03;;;3.73;;
12248;SDS011;6187;50.778;6.142;2022-11-21T07:06:23;4.30;;;3.80;;
12248;SDS011;6187;50.778;6.142;2022-11-21T07:08:52;4.10;;;3.80;;
12248;SDS011;6187;50.778;6.142;2022-11-21T07:11:42;4.17;;;3.87;;
12248;SDS011;6187;50.778;6.142;2022-11-21T07:14:11;4.07;;;3.77;;
12248;SDS011;6187;50.778;6.142;2022-11-21T07:16:38;4.37;;;3.97;;
12248;SDS011;6187;50.778;6.142;2022-11-21T07:19:07;3.80;;;3.50;;
12248;SDS011;6187;50.778;6.142;2022-11-21T07:21:37;3.33;;;3.13;;
12248;SDS011;6187;50.778;6.142;2022-11-21T07:24:05;3.20;;;3.00;;
12248;SDS011;6187;50.778;6.142;2022-11-21T07:26:34;3.30;;;3.10;;
12248;SDS011;6187;50.778;6.142;2022-11-21T07:29:04;3.20;;;3.00;;
12248;SDS011;6187;50.778;6.142;2022-11-21T07:31:32;3.80;;;3.50;;
12248;SDS011;6187;50.778;6.142;2022-11-21T07:34:01;3.60;;;3.30;;
12248;SDS011;6187;50.778;6.142;2022-11-21T07:36:30;3.90;;;3.60;;
12248;SDS011;6187;50.778;6.142;2022-11-21T07:38:58;3.67;;;3.37;;
12248;SDS011;6187;50.778;6.142;2022-11-21T07:41:28;3.57;;;3.00;;
12248;SDS011;6187;50.778;6.142;2022-11-21T07:43:57;3.03;;;2.83;;
12248;SDS011;6187;50.778;6.142;2022-11-21T07:46:27;3.30;;;3.00;;
12248;SDS011;6187;50.778;6.142;2022-11-21T07:48:55;2.77;;;2.57;;
12248;SDS011;6187;50.778;6.142;2022-11-21T07:51:29;3.27;;;3.00;;
12248;SDS011;6187;50.778;6.142;2022-11-21T07:53:57;3.30;;;3.00;;
12248;SDS011;6187;50.778;6.142;2022-11-21T07:56:26;2.70;;;2.50;;
12248;SDS011;6187;50.778;6.142;2022-11-21T07:58:54;2.90;;;2.70;;
12248;SDS011;6187;50.778;6.142;2022-11-21T08:01:23;2.63;;;2.43;;
12248;SDS011;6187;50.778;6.142;2022-11-21T08:03:53;3.13;;;2.40;;
12248;SDS011;6187;50.778;6.142;2022-11-21T08:06:22;2.30;;;2.10;;
12248;SDS011;6187;50.778;6.142;2022-11-21T08:08:51;2.60;;;2.40;;
12248;SDS011;6187;50.778;6.142;2022-11-21T08:11:20;2.40;;;2.20;;
12248;SDS011;6187;50.778;6.142;2022-11-21T08:13:49;2.43;;;2.23;;
12248;SDS011;6187;50.778;6.142;2022-11-21T08:16:17;2.63;;;2.10;;
12248;SDS011;6187;50.778;6.142;2022-11-21T08:18:48;1.97;;;1.87;;
12248;SDS011;6187;50.778;6.142;2022-11-21T08:21:18;1.70;;;1.60;;
12248;SDS011;6187;50.778;6.142;2022-11-21T08:23:47;2.07;;;1.90;;
12248;SDS011;6187;50.778;6.142;2022-11-21T08:26:16;1.80;;;1.70;;
12248;SDS011;6187;50.778;6.142;2022-11-21T08:28:45;1.70;;;1.60;;
12248;SDS011;6187;50.778;6.142;2022-11-21T08:31:13;2.10;;;1.90;;
12248;SDS011;6187;50.778;6.142;2022-11-21T08:33:42;1.90;;;1.70;;
12248;SDS011;6187;50.778;6.142;2022-11-21T08:36:10;2.77;;;1.80;;
12248;SDS011;6187;50.778;6.142;2022-11-21T08:38:40;1.70;;;1.60;;
12248;SDS011;6187;50.778;6.142;2022-11-21T08:41:10;2.27;;;1.70;;
12248;SDS011;6187;50.778;6.142;2022-11-21T08:43:56;2.03;;;1.83;;
12248;SDS011;6187;50.778;6.142;2022-11-21T08:46:25;1.93;;;1.70;;
12248;SDS011;6187;50.778;6.142;2022-11-21T08:48:53;1.83;;;1.40;;
12248;SDS011;6187;50.778;6.142;2022-11-21T08:51:23;1.93;;;1.53;;
12248;SDS011;6187;50.778;6.142;2022-11-21T08:53:53;1.63;;;1.43;;
12248;SDS011;6187;50.778;6.142;2022-11-21T08:56:22;1.60;;;1.40;;
12248;SDS011;6187;50.778;6.142;2022-11-21T08:58:50;1.90;;;1.57;;
12248;SDS011;6187;50.778;6.142;2022-11-21T09:01:19;1.40;;;1.20;;
12248;SDS011;6187;50.778;6.142;2022-11-21T09:03:48;1.20;;;1.10;;
12248;SDS011;6187;50.778;6.142;2022-11-21T09:06:17;1.77;;;1.30;;
12248;SDS011;6187;50.778;6.142;2022-11-21T09:08:45;1.57;;;1.20;;
12248;SDS011;6187;50.778;6.142;2022-11-21T09:11:15;1.40;;;1.10;;
12248;SDS011;6187;50.778;6.142;2022-11-21T09:13:44;1.20;;;1.00;;
12248;SDS011;6187;50.778;6.142;2022-11-21T09:16:33;1.17;;;1.00;;
12248;SDS011;6187;50.778;6.142;2022-11-21T09:19:16;1.83;;;1.20;;
12248;SDS011;6187;50.778;6.142;2022-11-21T09:21:45;1.20;;;1.00;;
12248;SDS011;6187;50.778;6.142;2022-11-21T09:24:13;1.20;;;1.10;;
12248;SDS011;6187;50.778;6.142;2022-11-21T09:26:44;1.43;;;1.20;;
12248;SDS011;6187;50.778;6.142;2022-11-21T09:29:12;1.53;;;1.30;;
12248;SDS011;6187;50.778;6.142;2022-11-21T09:31:41;1.87;;;1.10;;
12248;SDS011;6187;50.778;6.142;2022-11-21T09:34:11;1.30;;;1.00;;
12248;SDS011;6187;50.778;6.142;2022-11-21T09:36:40;1.20;;;1.10;;
12248;SDS011;6187;50.778;6.142;2022-11-21T09:39:08;1.37;;;1.00;;
12248;SDS011;6187;50.778;6.142;2022-11-21T09:41:39;1.47;;;1.10;;
12248;SDS011;6187;50.778;6.142;2022-11-21T09:44:29;1.43;;;1.00;;
12248;SDS011;6187;50.778;6.142;2022-11-21T09:47:01;1.00;;;0.90;;
12248;SDS011;6187;50.778;6.142;2022-11-21T09:49:33;1.80;;;1.00;;
12248;SDS011;6187;50.778;6.142;2022-11-21T09:52:06;1.47;;;0.90;;
12248;SDS011;6187;50.778;6.142;2022-11-21T09:54:45;0.90;;;0.90;;
12248;SDS011;6187;50.778;6.142;2022-11-21T09:57:16;1.10;;;0.83;;
12248;SDS011;6187;50.778;6.142;2022-11-21T09:59:46;1.80;;;1.00;;
12248;SDS011;6187;50.778;6.142;2022-11-21T10:02:15;1.00;;;0.80;;
12248;SDS011;6187;50.778;6.142;2022-11-21T10:04:45;1.13;;;1.00;;
12248;SDS011;6187;50.778;6.142;2022-11-21T10:07:15;1.37;;;1.00;;
12248;SDS011;6187;50.778;6.142;2022-11-21T10:09:46;2.00;;;1.10;;
12248;SDS011;6187;50.778;6.142;2022-11-21T10:12:20;1.00;;;0.90;;
12248;SDS011;6187;50.778;6.142;2022-11-21T10:15:18;1.03;;;0.90;;
12248;SDS011;6187;50.778;6.142;2022-11-21T10:17:55;2.23;;;1.13;;
12248;SDS011;6187;50.778;6.142;2022-11-21T10:20:28;1.20;;;1.03;;
12248;SDS011;6187;50.778;6.142;2022-11-21T10:25:53;1.20;;;0.90;;
12248;SDS011;6187;50.778;6.142;2022-11-21T10:28:23;1.20;;;0.80;;
12248;SDS011;6187;50.778;6.142;2022-11-21T10:30:56;1.27;;;1.00;;
12248;SDS011;6187;50.778;6.142;2022-11-21T10:33:26;1.83;;;1.10;;
12248;SDS011;6187;50.778;6.142;2022-11-21T10:35:59;2.10;;;1.00;;
12248;SDS011;6187;50.778;6.142;2022-11-21T10:38:28;1.17;;;0.60;;
12248;SDS011;6187;50.778;6.142;2022-11-21T10:41:00;1.00;;;0.90;;
12248;SDS011;6187;50.778;6.142;2022-11-21T10:43:31;1.43;;;0.97;;
12248;SDS011;6187;50.778;6.142;2022-11-21T10:46:21;0.80;;;0.77;;
12248;SDS011;6187;50.778;6.142;2022-11-21T10:48:52;0.80;;;0.67;;
12248;SDS011;6187;50.778;6.142;2022-11-21T10:51:36;0.60;;;0.60;;
12248;SDS011;6187;50.778;6.142;2022-11-21T10:54:07;0.80;;;0.70;;
12248;SDS011;6187;50.778;6.142;2022-11-21T10:56:55;0.70;;;0.70;;
12248;SDS011;6187;50.778;6.142;2022-11-21T10:59:26;0.57;;;0.57;;
12248;SDS011;6187;50.778;6.142;2022-11-21T11:01:59;1.03;;;0.80;;
12248;SDS011;6187;50.778;6.142;2022-11-21T11:04:28;1.07;;;0.70;;
12248;SDS011;6187;50.778;6.142;2022-11-21T11:07:20;0.60;;;0.60;;
12248;SDS011;6187;50.778;6.142;2022-11-21T11:09:49;1.07;;;0.67;;
12248;SDS011;6187;50.778;6.142;2022-11-21T11:12:23;1.00;;;0.83;;
12248;SDS011;6187;50.778;6.142;2022-11-21T11:15:17;0.90;;;0.80;;
12248;SDS011;6187;50.778;6.142;2022-11-21T11:17:52;1.67;;;0.83;;
12248;SDS011;6187;50.778;6.142;2022-11-21T11:20:28;0.70;;;0.60;;
12248;SDS011;6187;50.778;6.142;2022-11-21T11:22:57;1.27;;;0.90;;
12248;SDS011;6187;50.778;6.142;2022-11-21T11:25:26;0.83;;;0.70;;
12248;SDS011;6187;50.778;6.142;2022-11-21T11:27:55;0.70;;;0.70;;
12248;SDS011;6187;50.778;6.142;2022-11-21T11:30:24;1.37;;;1.00;;
12248;SDS011;6187;50.778;6.142;2022-11-21T11:32:54;1.37;;;0.80;;
12248;SDS011;6187;50.778;6.142;2022-11-21T11:35:23;1.03;;;0.80;;
12248;SDS011;6187;50.778;6.142;2022-11-21T11:37:55;1.23;;;1.13;;
12248;SDS011;6187;50.778;6.142;2022-11-21T11:40:27;1.10;;;1.00;;
12248;SDS011;6187;50.778;6.142;2022-11-21T11:43:11;0.80;;;0.80;;
12248;SDS011;6187;50.778;6.142;2022-11-21T11:46:02;0.70;;;0.70;;
12248;SDS011;6187;50.778;6.142;2022-11-21T11:48:52;0.80;;;0.80;;
12248;SDS011;6187;50.778;6.142;2022-11-21T11:51:45;1.03;;;0.90;;
12248;SDS011;6187;50.778;6.142;2022-11-21T11:54:16;1.20;;;0.93;;
12248;SDS011;6187;50.778;6.142;2022-11-21T11:56:45;0.90;;;0.90;;
12248;SDS011;6187;50.778;6.142;2022-11-21T11:59:15;1.13;;;0.73;;
12248;SDS011;6187;50.778;6.142;2022-11-21T12:01:47;0.83;;;0.70;;
12248;SDS011;6187;50.778;6.142;2022-11-21T12:04:19;0.90;;;0.83;;
12248;SDS011;6187;50.778;6.142;2022-11-21T12:06:49;0.70;;;0.70;;
12248;SDS011;6187;50.778;6.142;2022-11-21T12:09:41;1.00;;;0.70;;
12248;SDS011;6187;50.778;6.142;2022-11-21T12:12:14;1.43;;;1.03;;
12248;SDS011;6187;50.778;6.142;2022-11-21T12:14:44;1.73;;;0.90;;
12248;SDS011;6187;50.778;6.142;2022-11-21T12:17:33;1.13;;;0.80;;
12248;SDS011;6187;50.778;6.142;2022-11-21T12:20:07;1.20;;;0.80;;
12248;SDS011;6187;50.778;6.142;2022-11-21T12:22:39;1.03;;;0.80;;
12248;SDS011;6187;50.778;6.142;2022-11-21T12:25:09;1.20;;;1.00;;
12248;SDS011;6187;50.778;6.142;2022-11-21T12:27:39;1.03;;;0.80;;
12248;SDS011;6187;50.778;6.142;2022-11-21T12:30:16;1.23;;;0.77;;
12248;SDS011;6187;50.778;6.142;2022-11-21T12:32:53;1.30;;;1.00;;
12248;SDS011;6187;50.778;6.142;2022-11-21T12:35:37;0.90;;;0.70;;
12248;SDS011;6187;50.778;6.142;2022-11-21T12:38:14;0.90;;;0.80;;
12248;SDS011;6187;50.778;6.142;2022-11-21T12:40:46;0.90;;;0.70;;
12248;SDS011;6187;50.778;6.142;2022-11-21T12:43:19;1.07;;;0.90;;
12248;SDS011;6187;50.778;6.142;2022-11-21T12:45:51;0.87;;;0.87;;
12248;SDS011;6187;50.778;6.142;2022-11-21T12:48:30;1.30;;;1.20;;
12248;SDS011;6187;50.778;6.142;2022-11-21T12:54:45;1.60;;;0.87;;
12248;SDS011;6187;50.778;6.142;2022-11-21T12:57:16;1.47;;;1.00;;
12248;SDS011;6187;50.778;6.142;2022-11-21T12:59:47;1.73;;;1.37;;
12248;SDS011;6187;50.778;6.142;2022-11-21T13:02:22;1.10;;;0.90;;
12248;SDS011;6187;50.778;6.142;2022-11-21T13:04:52;2.97;;;1.27;;
12248;SDS011;6187;50.778;6.142;2022-11-21T13:07:22;1.57;;;1.03;;
12248;SDS011;6187;50.778;6.142;2022-11-21T13:09:52;1.40;;;1.00;;
12248;SDS011;6187;50.778;6.142;2022-11-21T13:12:24;1.50;;;1.30;;
12248;SDS011;6187;50.778;6.142;2022-11-21T13:14:54;1.43;;;1.00;;
12248;SDS011;6187;50.778;6.142;2022-11-21T13:17:28;1.83;;;1.33;;
12248;SDS011;6187;50.778;6.142;2022-11-21T13:20:04;3.07;;;1.70;;
12248;SDS011;6187;50.778;6.142;2022-11-21T13:22:46;2.30;;;1.30;;
12248;SDS011;6187;50.778;6.142;2022-11-21T13:30:46;2.43;;;1.73;;
12248;SDS011;6187;50.778;6.142;2022-11-21T13:35:58;3.10;;;1.50;;
12248;SDS011;6187;50.778;6.142;2022-11-21T13:38:26;1.70;;;1.30;;
12248;SDS011;6187;50.778;6.142;2022-11-21T13:40:55;3.07;;;1.50;;
12248;SDS011;6187;50.778;6.142;2022-11-21T13:43:41;1.23;;;1.00;;
12248;SDS011;6187;50.778;6.142;2022-11-21T13:46:12;2.17;;;1.23;;
12248;SDS011;6187;50.778;6.142;2022-11-21T13:49:04;2.43;;;1.60;;
12248;SDS011;6187;50.778;6.142;2022-11-21T13:51:42;2.40;;;1.43;;
12248;SDS011;6187;50.778;6.142;2022-11-21T13:57:03;2.63;;;1.30;;
12248;SDS011;6187;50.778;6.142;2022-11-21T13:59:39;2.53;;;1.40;;
12248;SDS011;6187;50.778;6.142;2022-11-21T14:05:02;2.13;;;1.43;;
12248;SDS011;6187;50.778;6.142;2022-11-21T14:07:34;1.60;;;1.30;;
12248;SDS011;6187;50.778;6.142;2022-11-21T14:10:05;2.90;;;1.40;;
12248;SDS011;6187;50.778;6.142;2022-11-21T14:12:35;2.73;;;1.50;;
12248;SDS011;6187;50.778;6.142;2022-11-21T14:15:16;1.60;;;1.37;;
12248;SDS011;6187;50.778;6.142;2022-11-21T14:17:47;2.90;;;1.30;;
12248;SDS011;6187;50.778;6.142;2022-11-21T14:20:19;2.27;;;1.20;;
12248;SDS011;6187;50.778;6.142;2022-11-21T14:22:52;3.00;;;1.60;;
12248;SDS011;6187;50.778;6.142;2022-11-21T14:25:35;2.87;;;2.00;;
12248;SDS011;6187;50.778;6.142;2022-11-21T14:28:04;2.17;;;1.10;;
12248;SDS011;6187;50.778;6.142;2022-11-21T14:30:34;2.50;;;1.40;;
12248;SDS011;6187;50.778;6.142;2022-11-21T14:33:16;1.90;;;1.50;;
12248;SDS011;6187;50.778;6.142;2022-11-21T14:35:47;1.70;;;1.30;;
12248;SDS011;6187;50.778;6.142;2022-11-21T14:38:16;1.47;;;1.20;;
12248;SDS011;6187;50.778;6.142;2022-11-21T14:40:46;2.90;;;1.53;;
12248;SDS011;6187;50.778;6.142;2022-11-21T14:43:28;2.60;;;1.60;;
12248;SDS011;6187;50.778;6.142;2022-11-21T14:45:57;2.57;;;1.43;;
12248;SDS011;6187;50.778;6.142;2022-11-21T14:48:26;2.50;;;1.57;;
12248;SDS011;6187;50.778;6.142;2022-11-21T14:50:57;2.03;;;1.73;;
12248;SDS011;6187;50.778;6.142;2022-11-21T14:53:27;1.90;;;1.40;;
12248;SDS011;6187;50.778;6.142;2022-11-21T14:55:56;2.23;;;1.87;;
12248;SDS011;6187;50.778;6.142;2022-11-21T14:58:27;4.10;;;2.17;;
12248;SDS011;6187;50.778;6.142;2022-11-21T15:01:03;2.23;;;1.70;;
12248;SDS011;6187;50.778;6.142;2022-11-21T15:03:32;2.63;;;1.50;;
12248;SDS011;6187;50.778;6.142;2022-11-21T15:06:02;3.17;;;1.67;;
12248;SDS011;6187;50.778;6.142;2022-11-21T15:08:34;1.73;;;1.33;;
12248;SDS011;6187;50.778;6.142;2022-11-21T15:11:24;1.73;;;1.30;;
12248;SDS011;6187;50.778;6.142;2022-11-21T15:13:58;2.37;;;1.50;;
12248;SDS011;6187;50.778;6.142;2022-11-21T15:16:44;2.67;;;1.47;;
12248;SDS011;6187;50.778;6.142;2022-11-21T15:19:16;2.30;;;1.30;;
12248;SDS011;6187;50.778;6.142;2022-11-21T15:21:47;2.53;;;1.43;;
12248;SDS011;6187;50.778;6.142;2022-11-21T15:24:17;2.20;;;1.40;;
12248;SDS011;6187;50.778;6.142;2022-11-21T15:26:46;2.27;;;1.40;;
12248;SDS011;6187;50.778;6.142;2022-11-21T15:29:18;2.80;;;1.90;;
12248;SDS011;6187;50.778;6.142;2022-11-21T15:34:30;2.57;;;1.53;;
12248;SDS011;6187;50.778;6.142;2022-11-21T15:37:03;2.10;;;1.40;;
12248;SDS011;6187;50.778;6.142;2022-11-21T15:39:34;3.17;;;1.70;;
12248;SDS011;6187;50.778;6.142;2022-11-21T15:44:55;2.07;;;1.30;;
12248;SDS011;6187;50.778;6.142;2022-11-21T15:47:24;2.73;;;1.47;;
12248;SDS011;6187;50.778;6.142;2022-11-21T15:49:53;1.30;;;1.20;;